Time;durP1;ratioP1;P1;durP2;ratioP2;P2;SDS_P1;SDS_P2;PMS_P1;PMS_P2;Temp;Humidity;BMP_temperature;BMP_pressure;BME280_temperature;BME280_humidity;BME280_pressure;Samples;Min_cycle;Max_cycle;Signal;HPM_P1;HPM_P2
2023/08/28 00:01:38;;;;;;;12.25;7.63;;;12.80;99.90;;;;;;5034991;28;20459;-69
2023/08/28 00:04:07;;;;;;;11.73;9.07;;;12.80;99.90;;;;;;5035065;28;20120;-70
2023/08/28 00:06:39;;;;;;;12.30;9.18;;;12.80;99.90;;;;;;5019296;28;20041;-63
2023/08/28 00:09:05;;;;;;;12.32;8.35;;;12.80;99.90;;;;;;5002406;28;20091;-70
2023/08/28 00:11:30;;;;;;;13.23;9.48;;;12.70;99.90;;;;;;5035142;28;20072;-70
2023/08/28 00:13:57;;;;;;;9.85;7.78;;;12.70;99.90;;;;;;5035107;28;20045;-70
2023/08/28 00:16:23;;;;;;;13.60;8.18;;;12.80;99.90;;;;;;5017921;28;20060;-68
2023/08/28 00:18:48;;;;;;;10.07;7.75;;;12.80;99.90;;;;;;5035074;28;20049;-70
2023/08/28 00:21:18;;;;;;;12.32;9.35;;;12.80;99.90;;;;;;5018852;28;20077;-70
2023/08/28 00:23:43;;;;;;;11.20;7.47;;;12.80;99.90;;;;;;5018725;28;20065;-70
2023/08/28 00:26:09;;;;;;;11.85;8.45;;;12.90;99.90;;;;;;5036108;28;20514;-70
2023/08/28 00:28:35;;;;;;;12.55;8.45;;;13.00;99.90;;;;;;5034871;28;20544;-70
2023/08/28 00:31:03;;;;;;;10.43;7.47;;;13.00;99.90;;;;;;5034681;28;20136;-69
2023/08/28 00:33:29;;;;;;;10.98;7.63;;;13.00;99.90;;;;;;5018134;28;20081;-68
2023/08/28 00:35:58;;;;;;;14.18;9.88;;;13.10;99.90;;;;;;5034421;28;20076;-69
2023/08/28 00:38:24;;;;;;;11.07;8.23;;;13.10;99.90;;;;;;5018379;28;20049;-70
2023/08/28 00:40:50;;;;;;;11.57;7.82;;;13.10;99.90;;;;;;5018440;28;20037;-68
2023/08/28 00:43:16;;;;;;;9.63;7.18;;;13.00;99.90;;;;;;5017969;28;20048;-70
2023/08/28 00:45:43;;;;;;;12.25;7.50;;;13.00;99.90;;;;;;5018228;28;20045;-70
2023/08/28 00:48:16;;;;;;;10.48;8.15;;;13.00;99.90;;;;;;5034436;28;20049;-70
2023/08/28 00:50:43;;;;;;;11.75;8.90;;;13.00;99.90;;;;;;5017776;28;20120;-70
2023/08/28 00:53:11;;;;;;;10.23;6.75;;;13.00;99.90;;;;;;5017516;28;20057;-70
2023/08/28 00:55:37;;;;;;;10.57;8.68;;;12.90;99.90;;;;;;5034481;28;20486;-69
2023/08/28 00:58:03;;;;;;;11.10;7.63;;;12.90;99.90;;;;;;5034396;28;20128;-70
2023/08/28 01:00:30;;;;;;;10.85;7.00;;;12.90;99.90;;;;;;5034493;28;20397;-71
2023/08/28 01:02:56;;;;;;;10.65;7.88;;;12.80;99.90;;;;;;5018103;28;20132;-69
2023/08/28 01:05:31;;;;;;;13.50;9.43;;;12.90;99.90;;;;;;5034172;28;20099;-70
2023/08/28 01:08:10;;;;;;;10.93;8.77;;;12.90;99.90;;;;;;5035742;28;20068;-68
2023/08/28 01:10:44;;;;;;;13.75;10.68;;;12.80;99.90;;;;;;5017448;28;20041;-71
2023/08/28 01:13:22;;;;;;;11.48;8.15;;;12.80;99.90;;;;;;5034295;28;20084;-69
2023/08/28 01:15:50;;;;;;;10.77;7.68;;;12.80;99.90;;;;;;5033981;28;20049;-70
2023/08/28 01:18:19;;;;;;;9.98;8.20;;;12.80;99.90;;;;;;5033948;28;20494;-71
2023/08/28 01:20:47;;;;;;;12.15;9.00;;;12.70;99.90;;;;;;5033881;28;20152;-69
2023/08/28 01:23:13;;;;;;;11.68;8.40;;;12.70;99.90;;;;;;5033667;28;20064;-69
2023/08/28 01:25:39;;;;;;;10.30;8.07;;;12.70;99.90;;;;;;5034192;28;20042;-69
2023/08/28 01:28:05;;;;;;;10.20;7.95;;;12.70;99.90;;;;;;5033615;28;20045;-70
2023/08/28 01:30:34;;;;;;;9.23;6.82;;;12.60;99.90;;;;;;5001133;28;20403;-70
2023/08/28 01:33:03;;;;;;;9.48;7.30;;;12.60;99.90;;;;;;5035430;28;20495;-69
2023/08/28 01:35:42;;;;;;;9.32;6.90;;;12.40;99.90;;;;;;5017154;28;20083;-64
2023/08/28 01:38:30;;;;;;;12.17;8.57;;;12.40;99.90;;;;;;5030841;28;20052;-64
2023/08/28 01:41:04;;;;;;;14.55;10.77;;;12.40;99.90;;;;;;5034696;28;20432;-64
2023/08/28 01:43:45;;;;;;;11.52;7.93;;;12.30;99.90;;;;;;5033283;28;20481;-64
2023/08/28 01:46:12;;;;;;;11.00;8.88;;;12.30;99.90;;;;;;5033410;28;20045;-63
2023/08/28 01:48:53;;;;;;;12.68;9.55;;;12.30;99.90;;;;;;5033153;28;20052;-64
2023/08/28 01:51:20;;;;;;;15.70;10.90;;;12.20;99.90;;;;;;5033334;28;20470;-64
2023/08/28 01:53:49;;;;;;;11.65;9.32;;;12.20;99.90;;;;;;5033202;28;20390;-63
2023/08/28 01:56:24;;;;;;;15.27;12.15;;;12.20;99.90;;;;;;5034434;28;20399;-64
2023/08/28 01:58:52;;;;;;;11.57;9.77;;;12.20;99.90;;;;;;5033179;28;20490;-64
2023/08/28 02:01:19;;;;;;;13.43;10.95;;;12.20;99.90;;;;;;5032788;28;20048;-64
2023/08/28 02:03:45;;;;;;;14.07;11.40;;;12.20;99.90;;;;;;5016105;28;20064;-64
2023/08/28 02:06:13;;;;;;;12.90;9.60;;;12.10;99.90;;;;;;5033172;28;20408;-64
2023/08/28 02:08:39;;;;;;;13.05;10.43;;;12.10;99.90;;;;;;5032730;28;20041;-62
2023/08/28 02:11:05;;;;;;;12.70;10.45;;;12.10;99.90;;;;;;5032695;28;20107;-64
2023/08/28 02:13:31;;;;;;;13.35;10.82;;;12.10;99.90;;;;;;5032649;28;20169;-63
2023/08/28 02:15:59;;;;;;;12.63;11.05;;;12.10;99.90;;;;;;5032612;28;20132;-63
2023/08/28 02:18:24;;;;;;;12.95;11.30;;;12.10;99.90;;;;;;5016547;28;20448;-69
2023/08/28 02:20:50;;;;;;;15.55;12.40;;;12.00;99.90;;;;;;5032846;28;20037;-70
2023/08/28 02:23:17;;;;;;;15.95;13.27;;;12.00;99.90;;;;;;5016184;28;20531;-69
2023/08/28 02:25:48;;;;;;;14.20;12.70;;;12.00;99.90;;;;;;5032706;28;20068;-69
2023/08/28 02:28:18;;;;;;;15.73;12.40;;;12.00;99.90;;;;;;5032775;28;20560;-69
2023/08/28 02:30:45;;;;;;;16.15;12.48;;;12.00;99.90;;;;;;5032729;28;20115;-68
2023/08/28 02:33:15;;;;;;;18.75;15.10;;;12.00;99.90;;;;;;5016654;28;20030;-69
2023/08/28 02:35:41;;;;;;;15.63;13.60;;;12.00;99.90;;;;;;4999699;28;20041;-69
2023/08/28 02:38:08;;;;;;;19.50;14.32;;;12.00;99.90;;;;;;5016006;28;20116;-69
2023/08/28 02:40:38;;;;;;;14.30;12.45;;;12.00;99.90;;;;;;5049102;28;20045;-70
2023/08/28 02:43:05;;;;;;;14.88;13.02;;;11.90;99.90;;;;;;5032199;28;20038;-69
2023/08/28 02:45:39;;;;;;;15.85;13.25;;;12.00;99.90;;;;;;5016172;28;20540;-69
2023/08/28 02:48:06;;;;;;;19.05;15.13;;;12.00;99.90;;;;;;5016141;28;20056;-69
2023/08/28 02:50:35;;;;;;;15.00;12.70;;;12.00;99.90;;;;;;5016002;28;20119;-69
2023/08/28 02:53:03;;;;;;;16.25;13.90;;;12.00;99.90;;;;;;5033749;28;20124;-69
2023/08/28 02:55:39;;;;;;;16.25;13.43;;;12.00;99.90;;;;;;5016030;28;20037;-69
2023/08/28 02:58:05;;;;;;;15.13;13.27;;;12.00;99.90;;;;;;5048657;28;20041;-69
2023/08/28 03:00:33;;;;;;;16.10;13.30;;;12.00;99.90;;;;;;5032548;28;20041;-69
2023/08/28 03:02:59;;;;;;;17.98;14.57;;;12.00;99.90;;;;;;5032213;28;20559;-70
2023/08/28 03:05:28;;;;;;;14.95;13.40;;;12.00;99.90;;;;;;5015883;28;20057;-70
2023/08/28 03:07:54;;;;;;;14.70;11.95;;;11.90;99.90;;;;;;5031895;28;20044;-69
2023/08/28 03:10:23;;;;;;;15.65;12.88;;;11.90;99.90;;;;;;5031856;28;20120;-69
2023/08/28 03:12:50;;;;;;;15.13;13.52;;;11.80;99.90;;;;;;5016122;28;20517;-70
2023/08/28 03:15:16;;;;;;;14.32;12.15;;;11.90;99.90;;;;;;5017386;28;20049;-70
2023/08/28 03:17:42;;;;;;;15.65;13.15;;;11.90;99.90;;;;;;5036237;28;20049;-70
2023/08/28 03:20:14;;;;;;;15.13;13.43;;;11.90;99.90;;;;;;5020095;28;20481;-69
2023/08/28 03:22:40;;;;;;;17.83;15.13;;;11.90;99.90;;;;;;5035781;28;20041;-69
2023/08/28 03:25:06;;;;;;;21.35;18.23;;;11.90;99.90;;;;;;5035867;28;20119;-70
2023/08/28 03:27:33;;;;;;;17.50;14.68;;;11.90;99.90;;;;;;5037537;28;20048;-70
2023/08/28 03:29:59;;;;;;;16.45;14.30;;;11.80;99.90;;;;;;5035976;28;20492;-70
2023/08/28 03:32:25;;;;;;;23.05;17.45;;;11.80;99.90;;;;;;5019457;28;20080;-70
2023/08/28 03:34:51;;;;;;;16.38;14.10;;;11.80;99.90;;;;;;5036844;28;20037;-69
2023/08/28 03:37:17;;;;;;;18.42;15.45;;;11.80;99.90;;;;;;5019478;28;20044;-69
2023/08/28 03:39:42;;;;;;;20.77;16.92;;;11.80;99.90;;;;;;5035834;28;20053;-69
2023/08/28 03:42:09;;;;;;;20.50;17.65;;;11.80;99.90;;;;;;5019394;28;20041;-69
2023/08/28 03:44:34;;;;;;;18.00;15.63;;;11.80;99.90;;;;;;5019592;28;20042;-69
2023/08/28 03:47:00;;;;;;;17.35;14.40;;;11.80;99.90;;;;;;5035787;28;20056;-69
2023/08/28 03:49:27;;;;;;;24.58;19.60;;;11.80;99.90;;;;;;5035421;28;20050;-68
2023/08/28 03:51:54;;;;;;;24.73;19.10;;;11.80;99.90;;;;;;5019184;28;20402;-70
2023/08/28 03:54:20;;;;;;;17.55;15.35;;;11.80;99.90;;;;;;5019204;28;20045;-69
2023/08/28 03:56:46;;;;;;;25.75;18.80;;;11.80;99.90;;;;;;5035320;28;20129;-70
2023/08/28 03:59:12;;;;;;;15.40;13.43;;;11.80;99.90;;;;;;5052138;28;20120;-70
2023/08/28 04:01:38;;;;;;;17.95;15.32;;;11.80;99.90;;;;;;5035298;28;20041;-67
2023/08/28 04:04:05;;;;;;;15.27;12.85;;;11.70;99.90;;;;;;5035348;28;20144;-69
2023/08/28 04:06:31;;;;;;;14.50;12.25;;;11.70;99.90;;;;;;5018462;28;20045;-69
2023/08/28 04:08:57;;;;;;;16.67;13.73;;;11.70;99.90;;;;;;5035449;28;20038;-70
2023/08/28 04:11:23;;;;;;;12.45;11.15;;;11.70;99.90;;;;;;5018466;28;20096;-69
2023/08/28 04:13:48;;;;;;;14.45;12.50;;;11.70;99.90;;;;;;5035001;28;20084;-70
2023/08/28 04:16:18;;;;;;;14.77;12.48;;;11.70;99.90;;;;;;5018663;28;20041;-70
2023/08/28 04:18:44;;;;;;;14.18;11.45;;;11.70;99.90;;;;;;5035000;28;20083;-69
2023/08/28 04:21:10;;;;;;;10.80;9.30;;;11.70;99.90;;;;;;5035003;28;20049;-69
2023/08/28 04:23:36;;;;;;;14.32;12.48;;;11.70;99.90;;;;;;5034997;28;20375;-70
2023/08/28 04:26:01;;;;;;;12.82;10.82;;;11.70;99.90;;;;;;5036205;28;20045;-69
2023/08/28 04:28:36;;;;;;;11.30;10.07;;;11.60;99.90;;;;;;5036293;28;20038;-68
2023/08/28 04:31:03;;;;;;;12.55;10.23;;;11.60;99.90;;;;;;5018187;28;20134;-69
2023/08/28 04:33:32;;;;;;;15.88;13.63;;;11.60;99.90;;;;;;5018497;28;20053;-69
2023/08/28 04:36:02;;;;;;;13.27;11.20;;;11.60;99.90;;;;;;5034393;28;20520;-70
2023/08/28 04:38:28;;;;;;;15.77;13.23;;;11.60;99.90;;;;;;5018122;28;20045;-64
2023/08/28 04:40:54;;;;;;;14.05;12.45;;;11.50;99.90;;;;;;5018111;28;20048;-64
2023/08/28 04:43:20;;;;;;;16.10;14.15;;;11.50;99.90;;;;;;5034376;28;20037;-64
2023/08/28 04:45:49;;;;;;;15.60;13.88;;;11.50;99.90;;;;;;5034502;28;20044;-63
2023/08/28 04:48:15;;;;;;;11.32;9.25;;;11.50;99.90;;;;;;5034627;28;20324;-65
2023/08/28 04:50:41;;;;;;;11.55;10.35;;;11.60;99.90;;;;;;5035575;28;20040;-64
2023/08/28 04:53:07;;;;;;;11.95;10.15;;;11.60;99.90;;;;;;5035698;28;20037;-63
2023/08/28 04:55:33;;;;;;;11.75;10.15;;;11.60;99.90;;;;;;5017793;28;20043;-64
2023/08/28 04:57:59;;;;;;;12.10;9.98;;;11.60;99.90;;;;;;5034506;28;20045;-64
2023/08/28 05:00:25;;;;;;;12.57;11.27;;;11.60;99.90;;;;;;5001581;28;20045;-63
2023/08/28 05:02:51;;;;;;;13.40;11.13;;;11.60;99.90;;;;;;5017883;28;20410;-63
2023/08/28 05:05:21;;;;;;;13.75;12.07;;;11.60;99.90;;;;;;5018492;28;20426;-64
2023/08/28 05:07:46;;;;;;;15.60;13.85;;;11.60;99.90;;;;;;5035265;28;20045;-64
2023/08/28 05:10:12;;;;;;;16.63;14.82;;;11.60;99.90;;;;;;5017298;28;20564;-64
2023/08/28 05:12:49;;;;;;;13.25;11.57;;;11.60;99.90;;;;;;5033950;28;20053;-64
2023/08/28 05:15:15;;;;;;;18.98;15.90;;;11.60;99.90;;;;;;5033740;28;20041;-64
2023/08/28 05:17:51;;;;;;;17.98;15.43;;;11.60;99.90;;;;;;5017640;28;20045;-64
2023/08/28 05:20:17;;;;;;;20.65;17.45;;;11.60;99.90;;;;;;5034055;28;20068;-64
2023/08/28 05:22:47;;;;;;;20.10;17.70;;;11.60;99.90;;;;;;5033849;28;20489;-64
2023/08/28 05:25:17;;;;;;;18.70;16.67;;;11.60;99.90;;;;;;5034159;28;20053;-65
2023/08/28 05:27:43;;;;;;;20.60;17.63;;;11.60;99.90;;;;;;5017890;28;20041;-64
2023/08/28 05:30:09;;;;;;;18.35;16.33;;;11.70;99.90;;;;;;5033670;28;20486;-63
2023/08/28 05:32:35;;;;;;;18.05;16.08;;;11.70;99.90;;;;;;5033720;28;20088;-64
2023/08/28 05:35:01;;;;;;;20.73;17.30;;;11.70;99.90;;;;;;5033463;28;20041;-64
2023/08/28 05:37:27;;;;;;;17.95;16.08;;;11.70;99.90;;;;;;5032863;28;20037;-64
2023/08/28 05:39:56;;;;;;;19.90;15.90;;;11.70;99.90;;;;;;5050407;28;20470;-63
2023/08/28 05:42:25;;;;;;;21.27;18.00;;;11.80;99.90;;;;;;5001749;28;20041;-65
2023/08/28 05:44:50;;;;;;;19.95;16.63;;;11.80;99.90;;;;;;5034788;28;20040;-64
2023/08/28 05:47:22;;;;;;;22.38;18.90;;;11.80;99.90;;;;;;5035076;28;20045;-68
2023/08/28 05:49:47;;;;;;;22.87;18.73;;;11.80;99.90;;;;;;5017550;28;20033;-69
2023/08/28 05:52:17;;;;;;;23.00;17.67;;;11.90;99.90;;;;;;5016928;28;20288;-68
2023/08/28 05:54:43;;;;;;;22.55;17.95;;;11.90;99.90;;;;;;5000880;28;20037;-69
2023/08/28 05:57:09;;;;;;;19.80;17.27;;;11.90;99.90;;;;;;5033082;28;20045;-64
2023/08/28 05:59:35;;;;;;;19.05;17.05;;;12.00;99.90;;;;;;5033185;28;20064;-70
2023/08/28 06:02:00;;;;;;;21.58;18.67;;;12.00;99.90;;;;;;5017146;28;20048;-71
2023/08/28 06:04:27;;;;;;;26.83;23.10;;;12.10;99.90;;;;;;5000147;28;20037;-69
2023/08/28 06:06:53;;;;;;;26.67;23.25;;;12.40;99.90;;;;;;5016724;28;20041;-69
2023/08/28 06:09:19;;;;;;;20.48;18.38;;;12.80;99.90;;;;;;5032931;28;20034;-69
2023/08/28 06:11:44;;;;;;;23.48;20.90;;;13.50;99.90;;;;;;5032574;28;20521;-69
2023/08/28 06:14:10;;;;;;;19.40;16.38;;;14.10;99.90;;;;;;5032929;28;20077;-69
2023/08/28 06:16:36;;;;;;;14.75;12.85;;;14.60;99.90;;;;;;5032780;28;20041;-69
2023/08/28 06:19:03;;;;;;;14.70;13.10;;;14.90;99.90;;;;;;5032836;28;20048;-69
2023/08/28 06:21:35;;;;;;;13.18;10.85;;;15.20;99.90;;;;;;5032858;28;20046;-69
2023/08/28 06:24:04;;;;;;;11.50;9.55;;;15.90;99.90;;;;;;5016465;28;20478;-68
2023/08/28 06:26:30;;;;;;;13.02;9.00;;;16.10;99.90;;;;;;5049563;28;20037;-68
2023/08/28 06:28:55;;;;;;;11.55;8.50;;;16.10;99.90;;;;;;5032613;28;20071;-70
2023/08/28 06:31:21;;;;;;;10.82;7.78;;;16.80;99.90;;;;;;5016678;28;20099;-70
2023/08/28 06:33:50;;;;;;;10.05;7.47;;;17.70;99.90;;;;;;5000222;28;20045;-69
2023/08/28 06:36:16;;;;;;;9.80;7.78;;;18.20;99.90;;;;;;5032902;28;20490;-70
2023/08/28 06:38:42;;;;;;;9.73;7.90;;;18.70;99.90;;;;;;5032579;28;20045;-68
2023/08/28 06:41:08;;;;;;;8.40;6.63;;;18.50;99.90;;;;;;5016416;28;20102;-69
2023/08/28 06:43:33;;;;;;;8.00;6.80;;;18.80;99.90;;;;;;5032464;28;20049;-69
2023/08/28 06:45:59;;;;;;;8.68;6.20;;;18.70;99.90;;;;;;5016220;28;20042;-69
2023/08/28 06:48:25;;;;;;;7.68;5.90;;;19.00;99.90;;;;;;5016437;28;20184;-70
2023/08/28 06:50:51;;;;;;;9.25;5.82;;;19.80;99.90;;;;;;5031436;28;20401;-70
2023/08/28 06:53:20;;;;;;;7.22;5.32;;;20.40;99.90;;;;;;5032760;28;20068;-69
2023/08/28 06:55:49;;;;;;;;;;;20.60;99.90;;;;;;5032931;28;20053;-69
2023/08/28 06:58:15;;;;;;;7.95;5.18;;;21.00;99.90;;;;;;5032109;28;19940;-64
2023/08/28 07:00:44;;;;;;;7.68;4.90;;;21.40;99.90;;;;;;5016132;28;20049;-64
2023/08/28 07:03:10;;;;;;;6.57;4.40;;;21.00;99.90;;;;;;5031801;28;20045;-64
2023/08/28 07:05:36;;;;;;;8.20;5.60;;;21.80;99.90;;;;;;5015445;28;20037;-64
2023/08/28 07:08:03;;;;;;;6.07;4.60;;;21.60;99.90;;;;;;5032011;28;20049;-64
2023/08/28 07:10:29;;;;;;;8.10;4.68;;;21.80;99.90;;;;;;5031949;28;20057;-64
2023/08/28 07:12:55;;;;;;;6.72;3.72;;;22.40;99.90;;;;;;5015338;28;20058;-65
2023/08/28 07:15:20;;;;;;;6.45;4.20;;;23.00;99.90;;;;;;5031772;28;20045;-64
2023/08/28 07:17:46;;;;;;;6.80;3.95;;;23.00;99.90;;;;;;5033023;28;20060;-69
2023/08/28 07:20:12;;;;;;;6.80;3.90;;;22.90;99.90;;;;;;5031786;28;20445;-69
2023/08/28 07:22:41;;;;;;;7.40;3.40;;;22.40;99.90;;;;;;5047998;28;20498;-68
2023/08/28 07:25:07;;;;;;;7.10;3.40;;;22.50;99.90;;;;;;5032067;28;20096;-69
2023/08/28 07:27:36;;;;;;;5.50;3.40;;;22.70;99.90;;;;;;5015675;28;20431;-64
2023/08/28 07:30:06;;;;;;;6.40;3.22;;;22.70;99.90;;;;;;5016050;28;20041;-64
2023/08/28 07:32:33;;;;;;;6.30;3.20;;;23.00;99.90;;;;;;5015668;28;20046;-64
2023/08/28 07:35:00;;;;;;;6.20;2.80;;;23.30;99.90;;;;;;5015668;28;20450;-65
2023/08/28 07:37:43;;;;;;;6.05;2.90;;;23.10;99.90;;;;;;5015197;28;20044;-63
2023/08/28 07:40:09;;;;;;;6.47;2.78;;;22.90;99.90;;;;;;5031792;28;20500;-64
2023/08/28 07:42:36;;;;;;;5.85;3.10;;;23.20;99.90;;;;;;5031442;28;20046;-64
2023/08/28 07:45:02;;;;;;;6.82;2.83;;;23.10;99.90;;;;;;5031623;28;20049;-64
2023/08/28 07:47:28;;;;;;;7.13;3.35;;;22.90;99.90;;;;;;5031518;28;20045;-63
2023/08/28 07:49:57;;;;;;;6.18;3.58;;;22.80;99.90;;;;;;5031737;28;20033;-63
2023/08/28 07:52:23;;;;;;;5.97;2.80;;;22.80;99.90;;;;;;5031548;28;20390;-64
2023/08/28 07:54:52;;;;;;;6.45;3.28;;;23.10;99.90;;;;;;5031652;28;20033;-64
2023/08/28 07:57:21;;;;;;;6.60;3.33;;;23.20;99.90;;;;;;4998961;28;20511;-64
2023/08/28 07:59:47;;;;;;;5.50;2.78;;;23.20;99.90;;;;;;5015761;28;20542;-63
2023/08/28 08:02:13;;;;;;;5.63;2.75;;;23.00;99.90;;;;;;5008632;28;20179;-62
2023/08/28 08:04:39;;;;;;;6.18;2.60;;;22.90;99.90;;;;;;5050377;28;20486;-63
2023/08/28 08:07:07;;;;;;;6.38;2.35;;;23.20;99.90;;;;;;5036571;28;20041;-70
2023/08/28 08:09:34;;;;;;;5.30;2.50;;;23.00;99.90;;;;;;5035539;28;20030;-70
2023/08/28 08:12:01;;;;;;;6.53;2.40;;;22.90;99.90;;;;;;5018466;28;20056;-70
2023/08/28 08:14:27;;;;;;;6.00;2.35;;;22.80;99.90;;;;;;5034987;28;20103;-70
2023/08/28 08:16:53;;;;;;;5.35;2.20;;;22.70;99.90;;;;;;5035443;28;20435;-69
2023/08/28 08:19:19;;;;;;;9.40;2.90;;;22.80;99.90;;;;;;5002281;28;20048;-70
2023/08/28 08:21:44;;;;;;;5.78;2.30;;;22.80;99.90;;;;;;5035137;28;20045;-71
2023/08/28 08:24:16;;;;;;;6.05;2.30;;;22.80;99.90;;;;;;5034874;28;20045;-70
2023/08/28 08:26:43;;;;;;;4.72;2.20;;;22.60;99.90;;;;;;5019102;28;20037;-69
2023/08/28 08:29:09;;;;;;;5.75;2.40;;;22.50;99.90;;;;;;5002249;28;20043;-71
2023/08/28 08:31:34;;;;;;;6.95;2.45;;;22.70;99.90;;;;;;5018579;28;20443;-70
2023/08/28 08:34:00;;;;;;;5.18;2.10;;;22.60;99.90;;;;;;5034930;28;20049;-70
2023/08/28 08:36:26;;;;;;;6.40;2.60;;;22.20;99.90;;;;;;5035061;28;20497;-70
2023/08/28 08:38:52;;;;;;;7.07;2.15;;;21.80;99.90;;;;;;5034935;28;20497;-70
2023/08/28 08:41:18;;;;;;;5.95;2.17;;;21.90;99.90;;;;;;5036084;28;20091;-70
2023/08/28 08:43:47;;;;;;;4.15;1.90;;;22.00;99.90;;;;;;5001917;28;20049;-70
2023/08/28 08:46:13;;;;;;;5.97;2.10;;;22.00;99.90;;;;;;5035233;28;20374;-70
2023/08/28 08:48:42;;;;;;;5.38;1.70;;;21.80;99.90;;;;;;5034957;28;20504;-70
2023/08/28 08:51:09;;;;;;;6.07;1.95;;;21.50;99.90;;;;;;5034139;28;20052;-71
2023/08/28 08:53:45;;;;;;;6.15;1.98;;;21.30;99.90;;;;;;5035719;28;20041;-68
2023/08/28 08:56:15;;;;;;;4.28;1.60;;;21.30;99.90;;;;;;5034598;28;20041;-69
2023/08/28 08:58:42;;;;;;;4.68;1.40;;;21.20;99.90;;;;;;5035730;28;20041;-71
2023/08/28 09:01:09;;;;;;;4.15;1.48;;;21.20;99.90;;;;;;5034248;28;20050;-70
2023/08/28 09:03:38;;;;;;;5.45;1.90;;;21.20;99.90;;;;;;5035574;28;20045;-70
2023/08/28 09:06:06;;;;;;;4.53;1.70;;;21.30;99.90;;;;;;5017820;28;20124;-71
2023/08/28 09:08:36;;;;;;;4.15;1.50;;;21.10;99.90;;;;;;5017590;28;20064;-71
2023/08/28 09:11:04;;;;;;;5.45;1.45;;;20.90;99.90;;;;;;5033730;28;20068;-71
2023/08/28 09:13:31;;;;;;;4.60;1.30;;;20.80;99.90;;;;;;5016784;28;20124;-70
2023/08/28 09:15:57;;;;;;;4.72;1.35;;;20.50;99.90;;;;;;5034035;28;20071;-70
2023/08/28 09:18:29;;;;;;;4.85;1.40;;;20.60;99.90;;;;;;5034262;28;20535;-63
2023/08/28 09:21:17;;;;;;;4.00;1.55;;;20.90;99.90;;;;;;5033676;28;20060;-64
2023/08/28 09:23:47;;;;;;;4.82;1.30;;;21.10;99.90;;;;;;5033835;28;20045;-63
2023/08/28 09:26:16;;;;;;;4.45;1.30;;;21.50;99.90;;;;;;5033553;28;20037;-63
2023/08/28 09:28:58;;;;;;;3.85;0.98;;;21.80;99.90;;;;;;5033769;28;20493;-64
2023/08/28 09:31:32;;;;;;;4.15;1.10;;;21.90;99.90;;;;;;5033718;28;20037;-62
2023/08/28 09:34:00;;;;;;;5.53;1.20;;;21.90;99.90;;;;;;5033365;28;20041;-63
2023/08/28 09:36:28;;;;;;;6.22;1.20;;;21.90;99.90;;;;;;5034805;28;20528;-64
2023/08/28 09:39:17;;;;;;;6.00;1.08;;;22.20;99.90;;;;;;5033323;28;20073;-63
2023/08/28 09:41:49;;;;;;;4.10;0.93;;;22.40;99.90;;;;;;5044247;28;20393;-63
2023/08/28 09:44:17;;;;;;;3.58;0.90;;;22.80;99.90;;;;;;5048091;28;20044;-62
2023/08/28 09:46:44;;;;;;;5.40;1.10;;;23.00;99.90;;;;;;5033181;28;20045;-63
2023/08/28 09:49:13;;;;;;;5.90;1.08;;;23.10;99.90;;;;;;5033426;28;20051;-62
2023/08/28 09:51:48;;;;;;;6.32;1.10;;;22.90;99.90;;;;;;5000525;28;20041;-63
2023/08/28 09:54:16;;;;;;;5.03;1.20;;;23.00;99.90;;;;;;5033012;28;20216;-64
2023/08/28 09:56:43;;;;;;;4.97;1.30;;;23.20;99.90;;;;;;5033032;28;20088;-63
2023/08/28 09:59:14;;;;;;;3.80;1.00;;;23.30;99.90;;;;;;5034492;28;20095;-63
2023/08/28 10:01:40;;;;;;;4.70;0.98;;;22.80;98.50;;;;;;5034440;28;20038;-64
2023/08/28 10:04:11;;;;;;;4.32;1.00;;;22.30;99.50;;;;;;5032686;28;20095;-63
2023/08/28 10:06:49;;;;;;;2.78;0.88;;;21.90;99.60;;;;;;5049801;28;20044;-64
2023/08/28 10:09:19;;;;;;;3.70;1.00;;;21.50;99.90;;;;;;5034146;28;20043;-63
2023/08/28 10:11:45;;;;;;;3.72;1.00;;;21.20;99.90;;;;;;5032788;28;20050;-63
2023/08/28 10:14:12;;;;;;;3.75;0.90;;;21.00;99.90;;;;;;5016118;28;20045;-64
2023/08/28 10:16:44;;;;;;;4.05;1.10;;;20.90;99.90;;;;;;5016231;28;20049;-64
2023/08/28 10:19:19;;;;;;;4.38;1.00;;;20.70;99.90;;;;;;5032864;28;20124;-63
2023/08/28 10:21:47;;;;;;;4.35;1.00;;;20.90;99.90;;;;;;5016275;28;20482;-64
2023/08/28 10:24:16;;;;;;;3.30;0.90;;;21.20;99.90;;;;;;5032162;28;20041;-64
2023/08/28 10:26:54;;;;;;;3.45;1.00;;;21.50;99.90;;;;;;5016457;28;20039;-69
2023/08/28 10:29:21;;;;;;;4.55;0.98;;;21.70;99.90;;;;;;5016964;28;20044;-63
2023/08/28 10:31:49;;;;;;;3.35;0.95;;;22.00;99.90;;;;;;5032340;28;20037;-64
2023/08/28 10:34:17;;;;;;;3.35;0.90;;;22.30;99.90;;;;;;5032299;28;20049;-63
2023/08/28 10:36:45;;;;;;;3.53;0.93;;;22.30;99.90;;;;;;5032362;28;20041;-63
2023/08/28 10:39:11;;;;;;;4.25;1.10;;;22.40;99.90;;;;;;5016042;28;20493;-64
2023/08/28 10:41:38;;;;;;;4.07;0.95;;;22.60;99.90;;;;;;5049249;28;20120;-64
2023/08/28 10:44:06;;;;;;;3.25;1.00;;;22.70;99.90;;;;;;5033519;28;20124;-63
2023/08/28 10:46:33;;;;;;;4.10;1.08;;;22.80;99.30;;;;;;5032291;28;20045;-63
2023/08/28 10:49:03;;;;;;;3.22;0.80;;;22.80;99.20;;;;;;5015769;28;20041;-63
2023/08/28 10:51:38;;;;;;;2.88;0.90;;;22.60;99.50;;;;;;5033310;28;20115;-63
2023/08/28 10:54:11;;;;;;;4.30;1.00;;;22.60;99.00;;;;;;5032226;28;20068;-63
2023/08/28 10:56:38;;;;;;;3.70;0.93;;;22.50;99.40;;;;;;5032319;28;20057;-64
2023/08/28 10:59:26;;;;;;;3.28;0.90;;;22.60;99.70;;;;;;5032103;28;20046;-72
2023/08/28 11:01:57;;;;;;;4.35;1.00;;;22.70;98.90;;;;;;5032417;28;20421;-69
2023/08/28 11:04:35;;;;;;;5.38;1.20;;;22.80;98.20;;;;;;5050225;28;20037;-71
2023/08/28 11:07:24;;;;;;;3.10;1.08;;;22.40;97.70;;;;;;5052513;28;20037;-71
2023/08/28 11:09:50;;;;;;;3.42;0.88;;;22.00;98.70;;;;;;5038687;28;20485;-71
2023/08/28 11:12:19;;;;;;;2.90;0.85;;;21.60;99.70;;;;;;5051898;28;20501;-72
2023/08/28 11:14:54;;;;;;;4.20;0.90;;;21.40;99.90;;;;;;5053521;28;20085;-71
2023/08/28 11:17:22;;;;;;;3.88;1.00;;;21.20;99.90;;;;;;5051939;28;20055;-71
2023/08/28 11:19:54;;;;;;;3.83;1.10;;;21.00;99.90;;;;;;5053089;28;20049;-70
2023/08/28 11:22:34;;;;;;;4.38;0.90;;;20.80;99.90;;;;;;5053133;28;20063;-70
2023/08/28 11:25:03;;;;;;;4.57;1.10;;;20.70;99.90;;;;;;5053284;28;20041;-71
2023/08/28 11:27:45;;;;;;;4.18;1.20;;;20.70;99.90;;;;;;5035478;28;20037;-71
2023/08/28 11:30:13;;;;;;;3.45;0.90;;;20.70;99.90;;;;;;5052096;28;20048;-72
2023/08/28 11:32:42;;;;;;;4.40;1.05;;;21.10;99.90;;;;;;5051740;28;20126;-71
2023/08/28 11:35:16;;;;;;;4.10;1.20;;;21.50;99.90;;;;;;5051986;28;20388;-71
2023/08/28 11:37:47;;;;;;;3.03;0.90;;;21.90;99.90;;;;;;5056037;28;20049;-73
2023/08/28 11:40:20;;;;;;;3.22;0.98;;;22.10;99.30;;;;;;5056247;28;20067;-72
2023/08/28 11:42:48;;;;;;;2.83;0.80;;;22.30;99.60;;;;;;5038782;28;20107;-70
2023/08/28 11:45:23;;;;;;;3.10;0.90;;;22.50;99.00;;;;;;5057061;28;20576;-71
2023/08/28 11:47:52;;;;;;;3.25;0.90;;;22.80;98.90;;;;;;5055482;28;20579;-71
2023/08/28 11:50:18;;;;;;;3.95;0.90;;;23.10;98.90;;;;;;5039607;28;20045;-70
2023/08/28 11:52:48;;;;;;;3.72;0.95;;;22.90;97.50;;;;;;5039070;28;20067;-70
2023/08/28 11:55:14;;;;;;;4.20;0.90;;;22.70;97.00;;;;;;5022562;28;20049;-70
2023/08/28 11:57:42;;;;;;;3.17;0.82;;;22.30;98.50;;;;;;5056969;28;20074;-71
2023/08/28 12:00:14;;;;;;;7.90;1.92;;;22.10;99.80;;;;;;5055232;28;20045;-71
2023/08/28 12:02:43;;;;;;;3.80;1.00;;;21.90;99.90;;;;;;5039843;28;20041;-71
2023/08/28 12:05:14;;;;;;;5.07;1.00;;;21.60;98.80;;;;;;5055948;28;20530;-70
2023/08/28 12:07:45;;;;;;;4.25;1.05;;;21.40;99.90;;;;;;5072059;28;20048;-71
2023/08/28 12:10:16;;;;;;;3.17;0.90;;;21.20;99.90;;;;;;5055562;28;20045;-70
2023/08/28 12:12:42;;;;;;;3.60;1.02;;;21.00;99.90;;;;;;5055364;28;20049;-70
2023/08/28 12:15:17;;;;;;;3.35;1.00;;;20.90;99.90;;;;;;5056459;28;20041;-71
2023/08/28 12:17:46;;;;;;;3.55;1.02;;;20.80;99.90;;;;;;5038614;28;20037;-70
2023/08/28 12:20:21;;;;;;;3.78;1.10;;;20.70;99.90;;;;;;5038429;28;20135;-70
2023/08/28 12:22:47;;;;;;;3.13;1.00;;;20.60;99.90;;;;;;5038284;28;20084;-71
2023/08/28 12:25:16;;;;;;;3.72;1.10;;;20.50;99.90;;;;;;5054754;28;20069;-71
2023/08/28 12:27:42;;;;;;;3.80;1.00;;;20.50;99.90;;;;;;5055180;28;20094;-70
2023/08/28 12:30:18;;;;;;;3.10;1.00;;;20.50;99.90;;;;;;5054913;28;20036;-70
2023/08/28 12:32:51;;;;;;;3.92;1.05;;;20.60;99.90;;;;;;5055072;28;20511;-69
2023/08/28 12:35:18;;;;;;;3.67;1.00;;;20.70;99.90;;;;;;5056270;28;20381;-71
2023/08/28 12:37:48;;;;;;;3.83;1.00;;;20.80;99.90;;;;;;5071748;28;20484;-71
2023/08/28 12:40:15;;;;;;;3.30;1.00;;;21.00;99.90;;;;;;5055109;28;20067;-72
2023/08/28 12:42:44;;;;;;;3.13;0.80;;;21.20;99.90;;;;;;5054931;28;20048;-70
2023/08/28 12:45:11;;;;;;;3.10;0.90;;;21.30;99.90;;;;;;5038948;28;20559;-71